Time;durP1;ratioP1;P1;durP2;ratioP2;P2;SDS_P1;SDS_P2;PMS_P1;PMS_P2;Temp;Humidity;BMP_temperature;BMP_pressure;BME280_temperature;BME280_humidity;BME280_pressure;Samples;Min_cycle;Max_cycle;Signal;HPM_P1;HPM_P2
2022/01/21 00:01:15;;;;;;;14.88;3.85;;;0.80;99.90;;;;;;5015039;28;20049;-69
2022/01/21 00:03:41;;;;;;;19.83;3.47;;;0.70;99.90;;;;;;5014425;28;20076;-67
2022/01/21 00:06:07;;;;;;;20.48;3.90;;;0.70;99.90;;;;;;4997526;28;20501;-68
2022/01/21 00:08:34;;;;;;;21.17;3.60;;;0.70;99.90;;;;;;4997270;28;20053;-66
2022/01/21 00:11:01;;;;;;;20.48;3.10;;;0.80;99.90;;;;;;4997941;28;20050;-67
2022/01/21 00:13:36;;;;;;;23.13;3.42;;;0.80;99.90;;;;;;5015110;28;20373;-67
2022/01/21 00:16:09;;;;;;;26.15;3.40;;;0.80;99.90;;;;;;4996866;28;20066;-67
2022/01/21 00:18:37;;;;;;;18.65;3.00;;;0.90;99.90;;;;;;4997705;28;20054;-67
2022/01/21 00:32:10;;;;;;;17.90;2.78;;;1.60;99.90;;;;;;5000936;28;20425;-68
2022/01/21 00:34:36;;;;;;;17.88;2.80;;;1.80;99.90;;;;;;5018038;28;20120;-68
2022/01/21 00:37:02;;;;;;;19.83;3.22;;;1.90;99.90;;;;;;5015683;28;20050;-66
2022/01/21 00:39:31;;;;;;;21.67;3.15;;;1.90;99.90;;;;;;5000777;28;20049;-68
2022/01/21 00:42:09;;;;;;;20.25;2.70;;;1.90;99.90;;;;;;5017861;28;20042;-66
2022/01/21 00:44:35;;;;;;;18.10;3.15;;;2.00;99.90;;;;;;5017803;28;20374;-68
2022/01/21 00:47:00;;;;;;;14.40;2.38;;;2.00;99.90;;;;;;5000547;28;20125;-68
2022/01/21 00:49:26;;;;;;;18.02;3.25;;;2.00;99.90;;;;;;5000643;28;20057;-67
2022/01/21 00:51:52;;;;;;;13.05;3.35;;;2.00;99.90;;;;;;5000834;28;20042;-67
2022/01/21 00:54:18;;;;;;;16.08;3.60;;;2.10;99.90;;;;;;5018029;28;20418;-67
2022/01/21 00:56:44;;;;;;;14.00;2.75;;;2.10;99.90;;;;;;5017646;28;20136;-66
2022/01/21 00:59:09;;;;;;;14.43;2.63;;;2.10;99.90;;;;;;5017591;28;20042;-68
2022/01/21 01:01:35;;;;;;;16.35;2.35;;;2.20;99.90;;;;;;5017672;28;20044;-65
2022/01/21 01:04:01;;;;;;;17.90;2.85;;;2.20;99.90;;;;;;4983947;28;20121;-69
2022/01/21 01:06:27;;;;;;;13.65;2.05;;;2.10;99.90;;;;;;4999763;28;20176;-68
2022/01/21 01:08:53;;;;;;;16.35;3.03;;;2.20;99.90;;;;;;5000913;28;20473;-69
2022/01/21 01:11:30;;;;;;;16.02;2.58;;;2.10;99.90;;;;;;5000454;28;20062;-69
2022/01/21 01:22:09;;;;;;;14.57;2.65;;;1.80;99.90;;;;;;4999908;28;20049;-66
2022/01/21 01:29:54;;;;;;;11.00;2.58;;;1.70;99.90;;;;;;4986136;28;20053;-68
2022/01/21 01:32:19;;;;;;;15.43;3.00;;;1.70;99.90;;;;;;5000235;28;20045;-67
2022/01/21 01:34:45;;;;;;;18.67;3.17;;;1.70;99.90;;;;;;4983619;28;20042;-68
2022/01/21 01:37:21;;;;;;;17.38;3.45;;;1.80;99.90;;;;;;4998687;28;20053;-68
2022/01/21 01:39:58;;;;;;;15.65;2.70;;;1.80;99.90;;;;;;4999695;28;20061;-67
2022/01/21 01:50:26;;;;;;;22.63;2.28;;;2.00;99.90;;;;;;4999179;28;20101;-69
2022/01/21 01:52:52;;;;;;;15.05;2.20;;;2.10;99.90;;;;;;5016925;28;20046;-68
2022/01/21 01:55:18;;;;;;;12.13;2.00;;;2.10;99.90;;;;;;4983311;28;20052;-66
2022/01/21 01:57:45;;;;;;;12.50;2.63;;;2.10;99.90;;;;;;4999536;28;20079;-68
2022/01/21 02:00:10;;;;;;;12.02;2.28;;;2.10;99.90;;;;;;5016529;28;20046;-67
2022/01/21 02:02:36;;;;;;;13.38;2.47;;;2.00;99.90;;;;;;4998541;28;20050;-67
2022/01/21 02:05:02;;;;;;;17.73;2.25;;;2.00;99.90;;;;;;4999006;28;20050;-68
2022/01/21 02:07:27;;;;;;;14.05;2.25;;;1.90;99.90;;;;;;5015626;28;20045;-67
2022/01/21 02:09:53;;;;;;;15.57;2.80;;;1.90;99.90;;;;;;4998896;28;20050;-67
2022/01/21 02:12:18;;;;;;;9.40;2.38;;;1.80;99.90;;;;;;4999050;28;20081;-67
2022/01/21 02:14:50;;;;;;;17.42;2.28;;;1.90;99.90;;;;;;5016110;28;20049;-67
2022/01/21 02:22:50;;;;;;;10.48;1.60;;;2.10;99.90;;;;;;5016110;28;20050;-68
2022/01/21 02:25:17;;;;;;;14.15;1.98;;;2.20;99.90;;;;;;5016169;28;20056;-67
2022/01/21 02:28:02;;;;;;;13.52;2.58;;;2.20;99.90;;;;;;5016277;28;20046;-66
2022/01/21 02:30:27;;;;;;;11.80;1.85;;;2.20;99.90;;;;;;5015852;28;20050;-67
2022/01/21 02:32:58;;;;;;;11.25;2.13;;;2.20;99.90;;;;;;4998575;28;20413;-68
2022/01/21 02:35:25;;;;;;;8.70;1.48;;;2.10;99.90;;;;;;5015724;28;20054;-70
2022/01/21 02:37:51;;;;;;;9.98;1.52;;;2.00;99.90;;;;;;4997680;28;20474;-66
2022/01/21 02:40:18;;;;;;;9.85;2.05;;;1.90;99.90;;;;;;4998744;28;20073;-69
2022/01/21 02:42:44;;;;;;;14.23;1.65;;;1.80;99.90;;;;;;5015801;28;20038;-69
2022/01/21 02:45:14;;;;;;;10.73;2.35;;;1.80;99.90;;;;;;4998765;28;20057;-67
2022/01/21 02:47:40;;;;;;;10.23;1.90;;;1.70;99.90;;;;;;5015177;28;20057;-67
2022/01/21 02:50:06;;;;;;;10.10;1.80;;;1.60;99.90;;;;;;5015086;28;20095;-66
2022/01/21 02:52:40;;;;;;;9.90;1.33;;;1.60;99.90;;;;;;5015397;28;20042;-67
2022/01/21 02:55:09;;;;;;;10.90;1.75;;;1.60;99.90;;;;;;5015674;28;20176;-67
2022/01/21 02:57:35;;;;;;;11.88;2.10;;;1.60;99.90;;;;;;5015322;28;20103;-68
2022/01/21 03:00:01;;;;;;;8.70;1.50;;;1.60;99.90;;;;;;5015861;28;20430;-67
2022/01/21 03:02:26;;;;;;;11.43;1.58;;;1.70;99.90;;;;;;5015748;28;20041;-67
2022/01/21 03:05:07;;;;;;;15.48;1.60;;;1.70;99.90;;;;;;5015804;28;20124;-67
2022/01/21 03:07:32;;;;;;;13.23;1.67;;;1.70;99.90;;;;;;5014789;28;20457;-66
2022/01/21 03:09:58;;;;;;;10.48;1.67;;;1.70;99.90;;;;;;5015488;28;20082;-67
2022/01/21 03:12:24;;;;;;;12.00;1.70;;;1.70;99.90;;;;;;5015348;28;20042;-67
2022/01/21 03:14:49;;;;;;;16.10;1.70;;;1.80;99.90;;;;;;5014917;28;20086;-65
2022/01/21 03:17:15;;;;;;;6.47;1.55;;;1.80;99.90;;;;;;5015430;28;20054;-67
2022/01/21 03:19:40;;;;;;;12.70;1.80;;;1.80;99.90;;;;;;5015145;28;20050;-68
2022/01/21 03:22:06;;;;;;;7.75;1.55;;;1.90;99.90;;;;;;4998104;28;20058;-67
2022/01/21 03:24:32;;;;;;;7.80;1.27;;;2.00;99.90;;;;;;5015063;28;20061;-68
2022/01/21 03:26:57;;;;;;;8.25;1.50;;;2.00;99.90;;;;;;5015477;28;20092;-69
2022/01/21 03:29:23;;;;;;;7.57;1.70;;;2.00;99.90;;;;;;5015278;28;20050;-68
2022/01/21 03:31:49;;;;;;;12.23;1.83;;;2.00;99.90;;;;;;4997726;28;20546;-69
2022/01/21 03:34:14;;;;;;;10.80;1.50;;;2.10;99.90;;;;;;4997855;28;20042;-66
2022/01/21 03:36:40;;;;;;;6.82;1.40;;;2.10;99.90;;;;;;4997387;28;20103;-68
2022/01/21 03:39:06;;;;;;;7.53;1.40;;;2.00;99.90;;;;;;4982196;28;20049;-68
2022/01/21 03:41:32;;;;;;;8.15;1.30;;;2.00;99.90;;;;;;4998371;28;20054;-66
2022/01/21 03:43:58;;;;;;;9.27;1.17;;;2.00;99.90;;;;;;4997948;28;20060;-66
2022/01/21 03:46:23;;;;;;;5.65;1.55;;;2.00;99.90;;;;;;4997643;28;20050;-68
2022/01/21 03:48:50;;;;;;;7.38;1.23;;;2.00;99.90;;;;;;4997994;28;20112;-66
2022/01/21 03:51:18;;;;;;;3.53;1.00;;;2.10;99.90;;;;;;4998098;28;20050;-68
2022/01/21 03:53:46;;;;;;;5.90;1.25;;;2.00;99.90;;;;;;4997800;28;20480;-66
2022/01/21 03:56:12;;;;;;;7.18;1.23;;;2.00;99.90;;;;;;5014977;28;20370;-66
2022/01/21 03:58:38;;;;;;;7.28;1.30;;;1.90;99.90;;;;;;5014868;28;20422;-66
2022/01/21 04:01:03;;;;;;;7.82;1.30;;;1.90;99.90;;;;;;5001018;28;20054;-67
2022/01/21 04:03:29;;;;;;;5.78;1.63;;;1.80;99.90;;;;;;5018646;28;20049;-68
2022/01/21 04:05:55;;;;;;;7.47;1.52;;;1.80;99.90;;;;;;5018142;28;20096;-67
2022/01/21 04:08:21;;;;;;;5.47;1.23;;;1.70;99.90;;;;;;5018466;28;20370;-67
2022/01/21 04:10:48;;;;;;;5.32;1.42;;;1.60;99.90;;;;;;5018801;28;20107;-66
2022/01/21 04:13:17;;;;;;;9.38;1.63;;;1.70;99.90;;;;;;5001754;28;20061;-69
2022/01/21 04:15:48;;;;;;;4.60;1.30;;;1.40;99.90;;;;;;5018100;28;20133;-67
2022/01/21 04:18:15;;;;;;;6.40;1.52;;;1.40;99.90;;;;;;5001704;28;20085;-66
2022/01/21 04:20:41;;;;;;;6.70;1.60;;;1.30;99.90;;;;;;5018716;28;20042;-66
2022/01/21 04:23:07;;;;;;;7.65;1.38;;;1.30;99.90;;;;;;5018333;28;20061;-68
2022/01/21 04:25:32;;;;;;;12.98;1.58;;;1.20;99.90;;;;;;4999446;28;20045;-68
2022/01/21 04:27:58;;;;;;;7.80;1.33;;;1.20;99.90;;;;;;5001013;28;20049;-66
2022/01/21 04:30:24;;;;;;;13.05;1.40;;;1.20;99.90;;;;;;5018290;28;20045;-68
2022/01/21 04:32:50;;;;;;;9.07;1.52;;;1.30;99.90;;;;;;5001091;28;20133;-66
2022/01/21 04:35:15;;;;;;;12.30;2.10;;;1.30;99.90;;;;;;5000971;28;20048;-66
2022/01/21 04:37:49;;;;;;;12.93;1.60;;;1.30;99.90;;;;;;4999915;28;20049;-68
2022/01/21 04:40:17;;;;;;;;;;;1.30;99.90;;;;;;5001467;28;20045;-66
2022/01/21 04:48:11;;;;;;;9.20;1.30;;;1.10;99.90;;;;;;5000354;28;20099;-66
2022/01/21 04:50:51;;;;;;;7.30;1.42;;;1.00;99.90;;;;;;5000181;28;20128;-66
2022/01/21 04:53:16;;;;;;;4.55;1.13;;;1.10;99.90;;;;;;5017659;28;20465;-67
2022/01/21 04:55:42;;;;;;;14.77;2.05;;;1.00;99.90;;;;;;4999921;28;20049;-66
2022/01/21 04:58:07;;;;;;;6.55;1.33;;;0.80;99.90;;;;;;5017796;28;20050;-67
2022/01/21 05:00:33;;;;;;;6.75;1.30;;;0.80;99.90;;;;;;5017503;28;20121;-67
2022/01/21 05:02:59;;;;;;;5.53;1.45;;;0.70;99.90;;;;;;5000452;28;20085;-66
2022/01/21 05:05:24;;;;;;;10.30;1.58;;;0.60;99.90;;;;;;5000412;28;20058;-67
2022/01/21 05:07:50;;;;;;;11.98;1.60;;;0.60;99.90;;;;;;5000633;28;20464;-66
2022/01/21 05:10:16;;;;;;;7.57;1.50;;;0.50;99.90;;;;;;5000247;28;20053;-67
2022/01/21 05:12:41;;;;;;;8.50;1.63;;;0.50;99.90;;;;;;4982822;28;20105;-66
2022/01/21 05:15:16;;;;;;;10.30;2.50;;;0.50;99.90;;;;;;4999996;28;20085;-66
2022/01/21 05:17:48;;;;;;;13.43;2.25;;;0.50;99.90;;;;;;5000194;28;20057;-69
2022/01/21 05:20:14;;;;;;;11.93;2.00;;;0.60;99.90;;;;;;5001078;28;20425;-68
2022/01/21 05:22:40;;;;;;;7.80;1.95;;;0.60;99.90;;;;;;4999651;28;20459;-68
2022/01/21 05:25:06;;;;;;;14.27;2.20;;;0.70;99.90;;;;;;4999356;28;20557;-68
2022/01/21 05:27:32;;;;;;;18.60;2.70;;;0.70;99.90;;;;;;4983946;28;20128;-68
2022/01/21 05:29:58;;;;;;;14.43;1.80;;;0.70;99.90;;;;;;4999724;28;20433;-66
2022/01/21 05:32:23;;;;;;;11.05;2.20;;;0.80;99.90;;;;;;4999823;28;20133;-68
2022/01/21 05:34:49;;;;;;;18.88;2.45;;;0.80;99.90;;;;;;5000281;28;20058;-67
2022/01/21 05:37:15;;;;;;;20.05;2.42;;;0.80;99.90;;;;;;4999797;28;20458;-67
2022/01/21 05:39:40;;;;;;;13.55;2.30;;;0.80;99.90;;;;;;4999391;28;20515;-67
2022/01/21 05:42:07;;;;;;;8.82;1.75;;;0.80;99.90;;;;;;5016640;28;20065;-69
2022/01/21 05:47:00;;;;;;;17.85;2.13;;;0.80;99.90;;;;;;4999922;28;20042;-67
2022/01/21 05:49:29;;;;;;;14.88;2.35;;;0.90;99.90;;;;;;5002215;28;20377;-67
2022/01/21 05:52:34;;;;;;;13.35;2.05;;;0.90;99.90;;;;;;4997990;28;20069;-69
2022/01/21 05:54:47;;;;;;;13.98;2.08;;;0.90;99.90;;;;;;4993991;28;20064;-68
2022/01/21 05:57:16;;;;;;;5.97;1.65;;;0.90;99.90;;;;;;5016483;28;20050;-68
2022/01/21 05:59:42;;;;;;;12.38;1.80;;;1.10;99.90;;;;;;5016143;28;20053;-67
2022/01/21 06:02:12;;;;;;;14.10;1.75;;;0.90;99.90;;;;;;4998402;28;20120;-68
2022/01/21 06:04:39;;;;;;;14.27;2.10;;;1.20;99.90;;;;;;5013276;28;20157;-67
2022/01/21 06:07:06;;;;;;;12.30;1.98;;;1.00;99.90;;;;;;4993716;28;20045;-68
2022/01/21 06:09:32;;;;;;;15.82;2.03;;;1.00;99.90;;;;;;5016227;28;20046;-67
2022/01/21 06:11:58;;;;;;;18.92;2.58;;;1.10;99.90;;;;;;4999153;28;20037;-68
2022/01/21 06:14:26;;;;;;;14.00;2.15;;;1.00;99.90;;;;;;4998743;28;20194;-67
2022/01/21 06:16:52;;;;;;;16.70;3.10;;;1.00;99.90;;;;;;4999654;28;20049;-68
2022/01/21 06:19:18;;;;;;;15.55;2.63;;;1.10;99.90;;;;;;4998169;28;20442;-68
2022/01/21 06:21:44;;;;;;;19.48;1.85;;;1.20;99.90;;;;;;5015525;28;20046;-68
2022/01/21 06:24:09;;;;;;;18.25;2.20;;;1.40;99.90;;;;;;5015094;28;20088;-67
2022/01/21 06:26:36;;;;;;;16.80;2.05;;;2.40;99.90;;;;;;5016386;28;20045;-67
2022/01/21 06:29:02;;;;;;;14.07;2.22;;;1.60;99.90;;;;;;5014174;28;20052;-68
2022/01/21 06:31:28;;;;;;;15.40;2.85;;;1.60;99.90;;;;;;5014890;28;20152;-68
2022/01/21 06:33:54;;;;;;;19.98;2.60;;;1.70;99.90;;;;;;4997914;28;20104;-66
2022/01/21 06:36:20;;;;;;;9.95;1.70;;;1.70;99.90;;;;;;5014286;28;20050;-67
2022/01/21 06:38:46;;;;;;;11.18;2.20;;;1.70;99.90;;;;;;4997994;28;20049;-66
2022/01/21 06:41:12;;;;;;;17.42;2.10;;;1.70;99.90;;;;;;5015616;28;20065;-67
2022/01/21 06:43:38;;;;;;;9.93;1.77;;;1.70;99.90;;;;;;4990585;28;20057;-67
2022/01/21 06:46:04;;;;;;;17.55;2.10;;;1.60;99.90;;;;;;4981809;28;20136;-68
2022/01/21 06:48:29;;;;;;;17.42;2.10;;;1.60;99.90;;;;;;5015487;28;20085;-67
2022/01/21 06:50:55;;;;;;;13.07;2.00;;;1.50;99.90;;;;;;5014942;28;20049;-66
2022/01/21 06:53:21;;;;;;;18.30;2.28;;;1.50;99.90;;;;;;5003077;28;20045;-67
2022/01/21 06:55:47;;;;;;;14.75;2.13;;;1.40;99.90;;;;;;5015345;28;20096;-67
2022/01/21 06:58:13;;;;;;;16.58;2.17;;;1.30;99.90;;;;;;4998349;28;20073;-67
2022/01/21 07:00:39;;;;;;;18.63;2.30;;;1.30;99.90;;;;;;5015309;28;20105;-67
2022/01/21 07:03:05;;;;;;;13.15;2.30;;;1.20;99.90;;;;;;5015313;28;20046;-68
2022/01/21 07:05:30;;;;;;;13.98;2.50;;;1.20;99.90;;;;;;5014779;28;20041;-67
2022/01/21 07:07:58;;;;;;;14.25;2.00;;;1.20;99.90;;;;;;5014808;28;20052;-67
2022/01/21 07:10:24;;;;;;;12.35;2.50;;;1.10;99.90;;;;;;4996727;28;20053;-66
2022/01/21 07:12:50;;;;;;;15.95;1.88;;;1.10;99.90;;;;;;5014657;28;20045;-67
2022/01/21 07:15:17;;;;;;;14.80;2.45;;;1.00;99.90;;;;;;5007088;28;20061;-69
2022/01/21 07:17:43;;;;;;;15.25;2.53;;;1.00;99.90;;;;;;4995089;28;20425;-68
2022/01/21 07:20:09;;;;;;;14.25;2.35;;;0.90;99.90;;;;;;4993385;28;20038;-68
2022/01/21 07:22:35;;;;;;;15.93;2.85;;;0.90;99.90;;;;;;4997016;28;20458;-68
2022/01/21 07:25:02;;;;;;;10.07;2.08;;;0.80;99.90;;;;;;4997013;28;20042;-67
2022/01/21 07:27:27;;;;;;;12.85;2.22;;;0.80;99.90;;;;;;4994729;28;20125;-66
2022/01/21 07:29:53;;;;;;;18.83;2.70;;;0.70;99.90;;;;;;4994568;28;20089;-66
2022/01/21 07:32:19;;;;;;;17.30;2.60;;;0.70;99.90;;;;;;4994774;28;20050;-68
2022/01/21 07:34:44;;;;;;;15.90;2.25;;;0.70;99.90;;;;;;4995228;28;20053;-69
2022/01/21 07:37:10;;;;;;;12.65;2.55;;;0.70;99.90;;;;;;4981792;28;20047;-67
2022/01/21 07:39:35;;;;;;;14.13;2.83;;;0.70;99.90;;;;;;4975105;28;20505;-66
2022/01/21 07:42:01;;;;;;;12.95;3.00;;;0.70;99.90;;;;;;4961953;28;20054;-67
2022/01/21 07:44:26;;;;;;;13.45;2.88;;;0.70;99.90;;;;;;4960896;28;20367;-66
2022/01/21 07:46:52;;;;;;;12.57;2.90;;;0.70;99.90;;;;;;4982828;28;20041;-67
2022/01/21 07:49:18;;;;;;;15.57;3.15;;;0.80;99.90;;;;;;4981058;28;20367;-66
2022/01/21 07:51:44;;;;;;;15.52;3.00;;;0.80;99.90;;;;;;4980982;28;20050;-67
2022/01/21 07:54:10;;;;;;;11.68;2.67;;;0.80;99.90;;;;;;4980488;28;20491;-66
2022/01/21 07:56:36;;;;;;;12.32;2.40;;;0.80;99.90;;;;;;4981278;28;20347;-67
2022/01/21 07:59:08;;;;;;;17.02;2.80;;;0.80;99.90;;;;;;4981022;28;20057;-68
2022/01/21 08:01:34;;;;;;;16.08;3.20;;;0.80;99.90;;;;;;4998564;28;20051;-68
2022/01/21 08:04:01;;;;;;;19.60;3.03;;;1.40;99.90;;;;;;4986109;28;20050;-67
2022/01/21 08:06:26;;;;;;;10.52;2.92;;;0.80;99.90;;;;;;4998324;28;20060;-67
2022/01/21 08:08:54;;;;;;;16.85;3.05;;;0.80;99.90;;;;;;5000656;28;20046;-67
2022/01/21 08:11:21;;;;;;;12.40;2.75;;;0.80;99.90;;;;;;4989497;28;20375;-67
2022/01/21 08:13:46;;;;;;;14.05;2.60;;;0.80;99.90;;;;;;4980939;28;20050;-67
2022/01/21 08:16:12;;;;;;;18.63;3.42;;;0.80;99.90;;;;;;4995584;28;20192;-66
2022/01/21 08:18:38;;;;;;;15.88;3.38;;;0.90;99.90;;;;;;5009776;28;20049;-66
2022/01/21 08:21:04;;;;;;;20.80;2.97;;;1.00;99.90;;;;;;5000326;28;20045;-67
2022/01/21 08:23:29;;;;;;;22.55;2.92;;;1.10;99.90;;;;;;5000562;28;20041;-68
2022/01/21 08:25:55;;;;;;;19.40;3.15;;;1.10;99.90;;;;;;4984789;28;20472;-68
2022/01/21 08:28:21;;;;;;;19.50;3.40;;;1.20;99.90;;;;;;5000410;28;20048;-68
2022/01/21 08:30:46;;;;;;;16.23;3.75;;;1.20;99.90;;;;;;5018017;28;20116;-69
2022/01/21 08:33:12;;;;;;;19.42;3.15;;;1.30;99.90;;;;;;5000678;28;20128;-68
2022/01/21 08:35:38;;;;;;;17.35;2.90;;;1.30;99.90;;;;;;5000401;28;20405;-70
2022/01/21 08:38:05;;;;;;;19.05;3.42;;;1.30;99.90;;;;;;5000161;28;20053;-68
2022/01/21 08:40:31;;;;;;;22.20;4.00;;;1.30;99.90;;;;;;5011453;28;20053;-69
2022/01/21 08:42:57;;;;;;;16.55;3.53;;;1.30;99.90;;;;;;5037107;28;20053;-67
2022/01/21 08:45:23;;;;;;;23.85;3.67;;;1.30;99.90;;;;;;5034854;28;20125;-67
2022/01/21 08:47:49;;;;;;;14.40;3.67;;;1.30;99.90;;;;;;4999189;28;20402;-68
2022/01/21 08:50:18;;;;;;;16.08;3.85;;;1.30;99.90;;;;;;5035440;28;20087;-67
2022/01/21 08:52:44;;;;;;;21.65;3.95;;;1.40;99.90;;;;;;5019062;28;20053;-69
2022/01/21 08:55:14;;;;;;;26.63;4.32;;;1.40;99.90;;;;;;5018488;28;20045;-69
2022/01/21 08:57:42;;;;;;;21.88;3.53;;;1.50;99.90;;;;;;5029699;28;20049;-67
2022/01/21 09:00:12;;;;;;;14.10;3.60;;;1.60;99.90;;;;;;5019968;28;20045;-68
2022/01/21 09:02:38;;;;;;;11.20;3.28;;;1.70;99.90;;;;;;5036654;28;20080;-68
2022/01/21 09:05:04;;;;;;;16.02;3.53;;;1.80;99.90;;;;;;5003518;28;20440;-68
2022/01/21 09:07:30;;;;;;;18.90;3.63;;;1.90;99.90;;;;;;5019537;28;20046;-67
2022/01/21 09:09:56;;;;;;;20.88;3.47;;;2.00;99.90;;;;;;5019557;28;20103;-68
2022/01/21 09:12:22;;;;;;;20.10;3.47;;;2.20;99.90;;;;;;5018794;28;20068;-69
2022/01/21 09:14:47;;;;;;;14.32;3.63;;;2.10;99.90;;;;;;5035780;28;20045;-69
2022/01/21 09:17:13;;;;;;;17.13;4.15;;;2.20;99.90;;;;;;5019176;28;20053;-68
2022/01/21 09:19:39;;;;;;;13.25;3.63;;;2.20;99.90;;;;;;5036739;28;20365;-68
2022/01/21 09:22:05;;;;;;;22.65;3.88;;;2.30;99.90;;;;;;5019224;28;20124;-68
2022/01/21 09:24:33;;;;;;;17.27;3.75;;;2.40;99.90;;;;;;5017977;28;20053;-67
2022/01/21 09:26:59;;;;;;;19.60;3.88;;;2.50;99.90;;;;;;5018170;28;20053;-67
2022/01/21 09:29:25;;;;;;;24.08;4.00;;;2.50;99.90;;;;;;5036496;28;20060;-69
2022/01/21 09:31:51;;;;;;;18.92;3.80;;;2.60;99.90;;;;;;5018689;28;20053;-68
2022/01/21 09:34:17;;;;;;;26.88;3.42;;;2.60;99.90;;;;;;5036010;28;20041;-68
2022/01/21 09:36:43;;;;;;;20.35;4.13;;;2.70;99.90;;;;;;5018619;28;20318;-69
2022/01/21 09:39:10;;;;;;;25.45;3.08;;;3.20;99.90;;;;;;5018336;28;20521;-67
2022/01/21 09:41:36;;;;;;;18.02;3.47;;;3.50;99.90;;;;;;5018536;28;20061;-69
2022/01/21 09:44:05;;;;;;;29.67;3.38;;;2.90;99.90;;;;;;5035972;28;20034;-68
2022/01/21 09:46:34;;;;;;;18.95;3.35;;;3.00;99.90;;;;;;5034343;28;20045;-68
2022/01/21 09:49:08;;;;;;;27.52;4.53;;;3.10;99.90;;;;;;5018062;28;20050;-69
2022/01/21 09:51:37;;;;;;;24.63;3.55;;;3.20;99.90;;;;;;5018602;28;20080;-68
2022/01/21 09:54:04;;;;;;;26.45;4.75;;;3.30;99.90;;;;;;5018039;28;20470;-67
2022/01/21 09:56:31;;;;;;;20.40;3.20;;;3.30;99.90;;;;;;5035613;28;20140;-67
2022/01/21 09:58:59;;;;;;;21.10;3.92;;;3.40;99.90;;;;;;5035642;28;20053;-67
2022/01/21 10:01:26;;;;;;;23.70;3.67;;;3.40;99.90;;;;;;5018851;28;20064;-67
2022/01/21 10:03:52;;;;;;;19.50;3.83;;;3.50;99.90;;;;;;5035956;28;20049;-68
2022/01/21 10:06:21;;;;;;;19.17;3.72;;;3.60;99.90;;;;;;5035891;28;20072;-68
2022/01/21 10:08:48;;;;;;;25.50;3.67;;;3.70;99.90;;;;;;5035798;28;20099;-68
2022/01/21 10:11:14;;;;;;;32.83;4.75;;;3.80;99.90;;;;;;5035680;28;20072;-67
2022/01/21 10:13:39;;;;;;;20.48;3.97;;;3.90;99.90;;;;;;5036162;28;20053;-67
2022/01/21 10:16:06;;;;;;;25.52;4.78;;;4.00;99.90;;;;;;5034872;28;20160;-68
2022/01/21 10:18:32;;;;;;;22.15;3.60;;;4.20;99.90;;;;;;5018461;28;20077;-67
2022/01/21 10:21:10;;;;;;;20.52;3.42;;;4.10;99.90;;;;;;5018264;28;20095;-67
2022/01/21 10:23:38;;;;;;;17.15;3.17;;;4.20;99.90;;;;;;5034888;28;20458;-67
2022/01/21 10:26:06;;;;;;;28.17;3.60;;;4.30;99.90;;;;;;5035558;28;20053;-69
2022/01/21 10:28:33;;;;;;;16.85;3.22;;;4.40;99.90;;;;;;5035509;28;20099;-69
2022/01/21 10:31:13;;;;;;;22.13;3.45;;;4.50;99.90;;;;;;5035275;28;20054;-69
2022/01/21 10:33:51;;;;;;;20.80;3.22;;;4.60;99.90;;;;;;5035101;28;20053;-68
2022/01/21 10:36:27;;;;;;;18.58;4.20;;;4.70;99.90;;;;;;5017650;28;20052;-68
2022/01/21 10:39:07;;;;;;;16.92;5.68;;;4.70;99.90;;;;;;5034546;28;20125;-70
2022/01/21 10:41:34;;;;;;;24.75;5.03;;;4.70;99.90;;;;;;5017285;28;20061;-70
2022/01/21 10:44:30;;;;;;;19.58;3.92;;;4.80;99.90;;;;;;5017283;28;20053;-69
2022/01/21 10:47:12;;;;;;;16.30;3.00;;;4.80;99.90;;;;;;5032891;28;20057;-69
2022/01/21 10:49:40;;;;;;;22.77;3.08;;;4.90;99.90;;;;;;5017194;28;20077;-69
2022/01/21 10:52:09;;;;;;;20.27;3.53;;;4.90;99.90;;;;;;5017328;28;20053;-68
2022/01/21 10:54:44;;;;;;;22.70;3.40;;;4.90;99.90;;;;;;5027493;28;20045;-69
2022/01/21 10:57:11;;;;;;;21.65;3.75;;;5.00;99.90;;;;;;5020997;28;20125;-67
2022/01/21 11:00:08;;;;;;;17.20;3.58;;;5.10;99.90;;;;;;5034629;28;20446;-67
2022/01/21 11:02:47;;;;;;;26.58;4.25;;;5.10;99.90;;;;;;5009305;28;20053;-70
2022/01/21 11:05:20;;;;;;;18.30;3.42;;;5.10;99.90;;;;;;5034697;28;20052;-68
2022/01/21 11:07:50;;;;;;;19.75;3.03;;;5.10;99.90;;;;;;5035140;28;20075;-67
2022/01/21 11:10:43;;;;;;;23.77;4.15;;;5.10;99.90;;;;;;5033505;28;20056;-68
2022/01/21 11:13:12;;;;;;;14.02;3.60;;;5.10;99.90;;;;;;5031740;28;20516;-68
2022/01/21 11:15:38;;;;;;;19.00;3.60;;;5.20;99.90;;;;;;5018347;28;20053;-67
2022/01/21 11:18:06;;;;;;;14.90;2.83;;;5.20;99.90;;;;;;5045456;28;20383;-68
2022/01/21 11:20:39;;;;;;;20.17;3.55;;;5.30;99.90;;;;;;5036970;28;20413;-67
2022/01/21 11:23:07;;;;;;;15.43;3.13;;;5.30;99.90;;;;;;5016901;28;20042;-69
2022/01/21 11:25:43;;;;;;;17.10;3.60;;;5.30;99.90;;;;;;5015839;28;20046;-69
2022/01/21 11:28:23;;;;;;;16.90;3.58;;;5.40;99.90;;;;;;5033466;28;20053;-68
2022/01/21 11:30:50;;;;;;;18.55;3.17;;;5.50;99.90;;;;;;5033477;28;20056;-68
2022/01/21 11:33:17;;;;;;;19.13;3.67;;;5.50;99.90;;;;;;5034193;28;20496;-69
2022/01/21 11:35:45;;;;;;;16.65;3.00;;;5.60;99.90;;;;;;5035828;28;20243;-68
2022/01/21 11:38:12;;;;;;;26.92;3.40;;;5.60;99.90;;;;;;5034030;28;20049;-68
2022/01/21 11:40:39;;;;;;;24.50;4.22;;;5.60;99.90;;;;;;5033928;28;20053;-69
2022/01/21 11:43:07;;;;;;;13.55;2.60;;;5.80;99.90;;;;;;5017038;28;20462;-69
2022/01/21 11:50:47;;;;;;;27.92;3.67;;;6.20;99.90;;;;;;5033501;28;20401;-69
2022/01/21 11:53:13;;;;;;;18.00;3.05;;;6.20;99.90;;;;;;5033059;28;20083;-68
2022/01/21 11:55:45;;;;;;;22.60;3.08;;;6.30;99.90;;;;;;5033921;28;20096;-68
2022/01/21 11:58:21;;;;;;;18.08;2.50;;;6.40;99.90;;;;;;5016498;28;20050;-68
2022/01/21 12:00:49;;;;;;;9.30;2.45;;;6.40;99.90;;;;;;5034686;28;20038;-67
2022/01/21 12:03:23;;;;;;;18.70;3.03;;;6.40;99.90;;;;;;5034285;28;20492;-68
2022/01/21 12:05:50;;;;;;;15.00;2.25;;;6.50;99.90;;;;;;5033280;28;20468;-68
2022/01/21 12:08:47;;;;;;;11.45;2.35;;;6.50;99.90;;;;;;5033871;28;20365;-69
2022/01/21 12:11:47;;;;;;;19.77;2.85;;;6.50;99.90;;;;;;5017218;28;20452;-66
2022/01/21 12:14:34;;;;;;;20.58;3.20;;;6.60;99.90;;;;;;5012652;28;20088;-65
2022/01/21 12:17:13;;;;;;;14.52;2.80;;;6.60;99.90;;;;;;5014279;28;20061;-68
2022/01/21 12:19:40;;;;;;;17.55;2.83;;;6.60;99.90;;;;;;5020145;28;20045;-68
2022/01/21 12:22:12;;;;;;;9.77;2.30;;;6.70;99.90;;;;;;5036767;28;20037;-67
2022/01/21 12:24:48;;;;;;;17.92;2.97;;;6.70;99.90;;;;;;5020795;28;20049;-69
2022/01/21 12:27:14;;;;;;;16.83;2.50;;;6.70;99.90;;;;;;5019738;28;20088;-68
2022/01/21 12:29:40;;;;;;;12.77;2.65;;;6.60;99.90;;;;;;5019764;28;20080;-68
2022/01/21 12:32:17;;;;;;;17.40;2.50;;;6.60;99.90;;;;;;5019967;28;20056;-69
2022/01/21 12:35:02;;;;;;;12.77;2.50;;;6.60;99.90;;;;;;5020735;28;20046;-68
2022/01/21 12:40:32;;;;;;;20.30;2.55;;;6.60;99.90;;;;;;4999268;28;20112;-67
2022/01/21 12:42:58;;;;;;;15.45;2.28;;;6.70;99.90;;;;;;4998767;28;20045;-70
2022/01/21 12:45:24;;;;;;;9.32;1.95;;;6.70;99.90;;;;;;4998614;28;20050;-67
2022/01/21 12:47:50;;;;;;;17.13;2.40;;;6.70;99.90;;;;;;5017291;28;20042;-67
2022/01/21 12:50:45;;;;;;;13.50;1.92;;;6.70;99.90;;;;;;4999722;28;20136;-67
2022/01/21 12:53:22;;;;;;;14.80;2.53;;;6.70;99.90;;;;;;5016773;28;20050;-69
2022/01/21 12:56:03;;;;;;;17.17;2.75;;;6.70;99.90;;;;;;5017591;28;20331;-68
2022/01/21 12:58:47;;;;;;;17.98;2.75;;;6.70;99.90;;;;;;4996475;28;20081;-68
2022/01/21 13:01:13;;;;;;;15.18;2.45;;;6.70;99.90;;;;;;4999082;28;20073;-69
2022/01/21 13:03:59;;;;;;;13.60;2.53;;;6.70;99.90;;;;;;4998708;28;20453;-70
2022/01/21 13:06:37;;;;;;;13.98;2.63;;;6.80;99.90;;;;;;4999080;28;20046;-68
2022/01/21 13:09:19;;;;;;;26.25;3.80;;;6.80;99.90;;;;;;4999261;28;20077;-67
2022/01/21 13:11:54;;;;;;;12.60;2.30;;;6.80;99.90;;;;;;5017011;28;20038;-69
2022/01/21 13:14:26;;;;;;;14.82;2.58;;;6.80;99.90;;;;;;4999042;28;20065;-68
2022/01/21 13:17:01;;;;;;;17.00;2.80;;;6.80;99.90;;;;;;4999352;28;20462;-67
2022/01/21 13:19:28;;;;;;;15.85;2.78;;;6.80;99.90;;;;;;5016665;28;20128;-69
2022/01/21 13:21:54;;;;;;;16.42;2.70;;;6.80;99.90;;;;;;5017281;28;20116;-67
2022/01/21 13:24:28;;;;;;;14.18;2.63;;;6.80;99.90;;;;;;5016571;28;20104;-68
2022/01/21 13:26:55;;;;;;;17.17;2.50;;;6.80;99.90;;;;;;4999353;28;20056;-69
2022/01/21 13:29:29;;;;;;;18.95;2.90;;;6.90;99.90;;;;;;4999616;28;20429;-69
2022/01/21 13:31:56;;;;;;;21.73;3.30;;;6.90;99.90;;;;;;5015823;28;20050;-68
2022/01/21 13:34:30;;;;;;;21.92;2.70;;;7.00;99.90;;;;;;5015719;28;20497;-70
2022/01/21 13:36:56;;;;;;;;;;;7.00;99.90;;;;;;5016655;28;20061;-69
2022/01/21 13:39:34;;;;;;;21.63;2.85;;;7.00;99.90;;;;;;4999568;28;19921;-70
2022/01/21 13:42:13;;;;;;;18.25;3.08;;;7.00;99.90;;;;;;4998579;28;20054;-68
2022/01/21 13:44:51;;;;;;;19.27;3.83;;;7.10;99.90;;;;;;4998966;28;20053;-68
2022/01/21 13:47:36;;;;;;;33.10;3.08;;;7.10;99.90;;;;;;4999397;28;20130;-68
2022/01/21 13:50:08;;;;;;;19.80;3.33;;;7.00;99.90;;;;;;4999018;28;20056;-68